sensor_id;sensor_type;location;lat;lon;timestamp;P1;durP1;ratioP1;P2;durP2;ratioP2
31596;SDS011;18201;50.978;7.034;2022-09-17T05:29:14;22.17;;;4.55;;
31596;SDS011;18201;50.978;7.034;2022-09-17T05:30:16;12.20;;;3.40;;
31596;SDS011;18201;50.978;7.034;2022-09-17T05:31:17;15.05;;;3.80;;
31596;SDS011;18201;50.978;7.034;2022-09-17T05:32:19;14.25;;;3.33;;
31596;SDS011;18201;50.978;7.034;2022-09-17T05:33:20;20.45;;;3.90;;
31596;SDS011;18201;50.978;7.034;2022-09-17T05:34:21;12.65;;;3.38;;
31596;SDS011;18201;50.978;7.034;2022-09-17T05:35:22;15.35;;;3.70;;
31596;SDS011;18201;50.978;7.034;2022-09-17T05:36:24;16.42;;;3.83;;
31596;SDS011;18201;50.978;7.034;2022-09-17T05:37:25;8.25;;;2.72;;
31596;SDS011;18201;50.978;7.034;2022-09-17T05:38:27;21.35;;;3.95;;
31596;SDS011;18201;50.978;7.034;2022-09-17T05:39:28;12.82;;;2.83;;
31596;SDS011;18201;50.978;7.034;2022-09-17T05:40:30;12.05;;;3.22;;
31596;SDS011;18201;50.978;7.034;2022-09-17T05:41:32;13.40;;;3.28;;
31596;SDS011;18201;50.978;7.034;2022-09-17T05:42:34;15.32;;;3.13;;
31596;SDS011;18201;50.978;7.034;2022-09-17T05:43:35;13.77;;;3.08;;
31596;SDS011;18201;50.978;7.034;2022-09-17T05:44:38;20.45;;;3.08;;
31596;SDS011;18201;50.978;7.034;2022-09-17T05:45:39;16.25;;;3.55;;
31596;SDS011;18201;50.978;7.034;2022-09-17T05:46:41;14.73;;;3.45;;
31596;SDS011;18201;50.978;7.034;2022-09-17T05:47:42;20.35;;;3.60;;
31596;SDS011;18201;50.978;7.034;2022-09-17T05:48:44;19.08;;;3.25;;
31596;SDS011;18201;50.978;7.034;2022-09-17T05:49:45;10.13;;;2.80;;
31596;SDS011;18201;50.978;7.034;2022-09-17T05:50:47;11.85;;;3.80;;
31596;SDS011;18201;50.978;7.034;2022-09-17T05:51:48;10.88;;;2.58;;
31596;SDS011;18201;50.978;7.034;2022-09-17T05:52:50;15.35;;;2.88;;
31596;SDS011;18201;50.978;7.034;2022-09-17T05:53:52;17.83;;;2.50;;
31596;SDS011;18201;50.978;7.034;2022-09-17T05:54:55;10.90;;;2.30;;
31596;SDS011;18201;50.978;7.034;2022-09-17T05:55:57;14.88;;;2.55;;
31596;SDS011;18201;50.978;7.034;2022-09-17T05:56:59;13.38;;;2.33;;
31596;SDS011;18201;50.978;7.034;2022-09-17T05:58:07;12.30;;;2.38;;
31596;SDS011;18201;50.978;7.034;2022-09-17T05:59:10;14.30;;;2.50;;
31596;SDS011;18201;50.978;7.034;2022-09-17T06:00:13;12.68;;;2.60;;
31596;SDS011;18201;50.978;7.034;2022-09-17T06:01:15;25.50;;;3.20;;
31596;SDS011;18201;50.978;7.034;2022-09-17T06:02:16;14.57;;;2.90;;
31596;SDS011;18201;50.978;7.034;2022-09-17T06:03:18;10.60;;;2.88;;
31596;SDS011;18201;50.978;7.034;2022-09-17T06:04:21;16.65;;;3.28;;
31596;SDS011;18201;50.978;7.034;2022-09-17T06:05:23;8.45;;;2.88;;
31596;SDS011;18201;50.978;7.034;2022-09-17T06:06:24;12.60;;;2.83;;
31596;SDS011;18201;50.978;7.034;2022-09-17T06:07:30;10.85;;;3.30;;
31596;SDS011;18201;50.978;7.034;2022-09-17T06:08:32;11.95;;;2.70;;
31596;SDS011;18201;50.978;7.034;2022-09-17T06:09:35;11.70;;;3.20;;
31596;SDS011;18201;50.978;7.034;2022-09-17T06:10:37;10.95;;;2.40;;
31596;SDS011;18201;50.978;7.034;2022-09-17T06:11:39;16.55;;;2.97;;
31596;SDS011;18201;50.978;7.034;2022-09-17T06:12:40;16.60;;;3.30;;
31596;SDS011;18201;50.978;7.034;2022-09-17T06:13:42;13.13;;;3.13;;
31596;SDS011;18201;50.978;7.034;2022-09-17T06:14:43;10.32;;;3.05;;
31596;SDS011;18201;50.978;7.034;2022-09-17T06:15:49;13.75;;;2.15;;
31596;SDS011;18201;50.978;7.034;2022-09-17T06:16:52;15.90;;;2.58;;
31596;SDS011;18201;50.978;7.034;2022-09-17T06:17:52;14.15;;;3.05;;
31596;SDS011;18201;50.978;7.034;2022-09-17T06:18:54;13.77;;;2.90;;
31596;SDS011;18201;50.978;7.034;2022-09-17T06:19:55;14.40;;;3.10;;
31596;SDS011;18201;50.978;7.034;2022-09-17T06:20:58;11.88;;;2.72;;
31596;SDS011;18201;50.978;7.034;2022-09-17T06:22:00;19.60;;;4.03;;
31596;SDS011;18201;50.978;7.034;2022-09-17T06:23:02;13.25;;;2.80;;
31596;SDS011;18201;50.978;7.034;2022-09-17T06:24:03;25.73;;;3.20;;
31596;SDS011;18201;50.978;7.034;2022-09-17T06:25:05;16.10;;;3.05;;
31596;SDS011;18201;50.978;7.034;2022-09-17T06:26:07;10.27;;;2.00;;
31596;SDS011;18201;50.978;7.034;2022-09-17T06:27:09;10.52;;;2.85;;
31596;SDS011;18201;50.978;7.034;2022-09-17T06:28:10;19.27;;;2.90;;
31596;SDS011;18201;50.978;7.034;2022-09-17T06:29:11;15.90;;;2.47;;
31596;SDS011;18201;50.978;7.034;2022-09-17T06:30:14;9.18;;;2.28;;
31596;SDS011;18201;50.978;7.034;2022-09-17T06:31:17;10.52;;;2.80;;
31596;SDS011;18201;50.978;7.034;2022-09-17T06:32:18;11.75;;;3.08;;
31596;SDS011;18201;50.978;7.034;2022-09-17T06:33:20;16.00;;;3.35;;
31596;SDS011;18201;50.978;7.034;2022-09-17T06:34:21;14.02;;;3.35;;
31596;SDS011;18201;50.978;7.034;2022-09-17T06:35:23;17.58;;;2.72;;
31596;SDS011;18201;50.978;7.034;2022-09-17T06:36:24;14.43;;;2.80;;
31596;SDS011;18201;50.978;7.034;2022-09-17T06:37:29;9.10;;;2.33;;
31596;SDS011;18201;50.978;7.034;2022-09-17T06:38:31;9.85;;;2.70;;
31596;SDS011;18201;50.978;7.034;2022-09-17T06:39:34;13.05;;;2.45;;
31596;SDS011;18201;50.978;7.034;2022-09-17T06:40:35;14.77;;;2.80;;
31596;SDS011;18201;50.978;7.034;2022-09-17T06:41:37;13.23;;;2.65;;
31596;SDS011;18201;50.978;7.034;2022-09-17T06:42:38;10.55;;;2.80;;
31596;SDS011;18201;50.978;7.034;2022-09-17T06:43:40;11.85;;;2.63;;
31596;SDS011;18201;50.978;7.034;2022-09-17T06:44:41;13.65;;;2.88;;
31596;SDS011;18201;50.978;7.034;2022-09-17T06:45:42;12.77;;;2.95;;
31596;SDS011;18201;50.978;7.034;2022-09-17T06:46:45;7.32;;;2.58;;
31596;SDS011;18201;50.978;7.034;2022-09-17T06:47:50;9.35;;;2.83;;
31596;SDS011;18201;50.978;7.034;2022-09-17T06:48:50;9.48;;;2.45;;
31596;SDS011;18201;50.978;7.034;2022-09-17T06:49:52;10.20;;;2.83;;
31596;SDS011;18201;50.978;7.034;2022-09-17T06:50:59;17.48;;;3.60;;
31596;SDS011;18201;50.978;7.034;2022-09-17T06:52:03;17.33;;;3.25;;
31596;SDS011;18201;50.978;7.034;2022-09-17T06:53:03;8.65;;;2.50;;
31596;SDS011;18201;50.978;7.034;2022-09-17T06:54:05;10.93;;;3.08;;
31596;SDS011;18201;50.978;7.034;2022-09-17T06:55:07;14.82;;;3.47;;
31596;SDS011;18201;50.978;7.034;2022-09-17T06:56:09;11.73;;;3.45;;
31596;SDS011;18201;50.978;7.034;2022-09-17T06:57:10;14.75;;;3.72;;
31596;SDS011;18201;50.978;7.034;2022-09-17T06:58:12;13.77;;;2.92;;
31596;SDS011;18201;50.978;7.034;2022-09-17T06:59:13;12.15;;;3.03;;
31596;SDS011;18201;50.978;7.034;2022-09-17T07:00:15;8.80;;;2.40;;
31596;SDS011;18201;50.978;7.034;2022-09-17T07:01:16;12.40;;;3.05;;
31596;SDS011;18201;50.978;7.034;2022-09-17T07:02:19;8.68;;;2.60;;
31596;SDS011;18201;50.978;7.034;2022-09-17T07:03:20;16.92;;;2.65;;
31596;SDS011;18201;50.978;7.034;2022-09-17T07:04:22;11.10;;;2.42;;
31596;SDS011;18201;50.978;7.034;2022-09-17T07:05:23;12.40;;;3.25;;
31596;SDS011;18201;50.978;7.034;2022-09-17T07:06:25;12.25;;;2.83;;
31596;SDS011;18201;50.978;7.034;2022-09-17T09:17:09;10.35;;;1.60;;
31596;SDS011;18201;50.978;7.034;2022-09-17T09:18:12;9.88;;;2.25;;
31596;SDS011;18201;50.978;7.034;2022-09-17T09:19:20;9.38;;;2.35;;
31596;SDS011;18201;50.978;7.034;2022-09-17T09:20:23;6.60;;;2.47;;
31596;SDS011;18201;50.978;7.034;2022-09-17T09:21:33;6.75;;;2.13;;
31596;SDS011;18201;50.978;7.034;2022-09-17T09:22:45;6.38;;;1.45;;
31596;SDS011;18201;50.978;7.034;2022-09-17T09:23:51;4.13;;;1.73;;
31596;SDS011;18201;50.978;7.034;2022-09-17T09:25:04;8.18;;;1.55;;
31596;SDS011;18201;50.978;7.034;2022-09-17T09:26:14;8.68;;;2.78;;
31596;SDS011;18201;50.978;7.034;2022-09-17T09:27:17;5.78;;;1.90;;
31596;SDS011;18201;50.978;7.034;2022-09-17T09:28:31;7.47;;;1.98;;
31596;SDS011;18201;50.978;7.034;2022-09-17T09:29:41;9.48;;;2.30;;
31596;SDS011;18201;50.978;7.034;2022-09-17T09:30:55;13.63;;;3.22;;
31596;SDS011;18201;50.978;7.034;2022-09-17T09:32:07;6.80;;;1.85;;
31596;SDS011;18201;50.978;7.034;2022-09-17T09:33:18;8.18;;;1.85;;
31596;SDS011;18201;50.978;7.034;2022-09-17T09:34:26;7.83;;;2.40;;
31596;SDS011;18201;50.978;7.034;2022-09-17T09:35:29;8.68;;;1.60;;
31596;SDS011;18201;50.978;7.034;2022-09-17T09:36:35;8.02;;;1.95;;
31596;SDS011;18201;50.978;7.034;2022-09-17T09:37:38;8.73;;;1.70;;
31596;SDS011;18201;50.978;7.034;2022-09-17T09:38:45;5.50;;;1.73;;
31596;SDS011;18201;50.978;7.034;2022-09-17T09:39:52;9.57;;;1.80;;
31596;SDS011;18201;50.978;7.034;2022-09-17T09:40:56;9.27;;;1.83;;
31596;SDS011;18201;50.978;7.034;2022-09-17T09:42:04;3.80;;;1.23;;
31596;SDS011;18201;50.978;7.034;2022-09-17T09:43:13;3.78;;;1.40;;
31596;SDS011;18201;50.978;7.034;2022-09-17T09:44:18;10.63;;;1.50;;
31596;SDS011;18201;50.978;7.034;2022-09-17T09:45:22;5.82;;;1.60;;
31596;SDS011;18201;50.978;7.034;2022-09-17T09:46:37;14.98;;;2.70;;
31596;SDS011;18201;50.978;7.034;2022-09-17T09:47:53;8.90;;;1.92;;
31596;SDS011;18201;50.978;7.034;2022-09-17T09:49:03;6.22;;;1.55;;
31596;SDS011;18201;50.978;7.034;2022-09-17T09:50:16;4.28;;;1.30;;
31596;SDS011;18201;50.978;7.034;2022-09-17T09:51:35;6.50;;;1.25;;
31596;SDS011;18201;50.978;7.034;2022-09-17T09:52:47;7.60;;;1.80;;
31596;SDS011;18201;50.978;7.034;2022-09-17T09:54:04;7.88;;;1.55;;
31596;SDS011;18201;50.978;7.034;2022-09-17T09:55:24;6.57;;;1.98;;
31596;SDS011;18201;50.978;7.034;2022-09-17T09:56:38;5.35;;;1.63;;
31596;SDS011;18201;50.978;7.034;2022-09-17T09:57:51;9.70;;;2.08;;
31596;SDS011;18201;50.978;7.034;2022-09-17T09:58:55;8.15;;;1.90;;
31596;SDS011;18201;50.978;7.034;2022-09-17T10:00:15;7.38;;;1.38;;
31596;SDS011;18201;50.978;7.034;2022-09-17T10:01:26;7.50;;;1.45;;
31596;SDS011;18201;50.978;7.034;2022-09-17T10:02:28;8.93;;;1.98;;
31596;SDS011;18201;50.978;7.034;2022-09-17T10:03:32;6.15;;;1.42;;
31596;SDS011;18201;50.978;7.034;2022-09-17T10:47:48;4.20;;;0.90;;
31596;SDS011;18201;50.978;7.034;2022-09-17T10:48:53;5.10;;;1.33;;
31596;SDS011;18201;50.978;7.034;2022-09-17T10:49:59;4.13;;;1.00;;
31596;SDS011;18201;50.978;7.034;2022-09-17T10:51:03;3.33;;;1.30;;
31596;SDS011;18201;50.978;7.034;2022-09-17T10:52:09;4.22;;;1.25;;
31596;SDS011;18201;50.978;7.034;2022-09-17T10:53:15;4.13;;;1.30;;
31596;SDS011;18201;50.978;7.034;2022-09-17T10:54:22;3.92;;;1.25;;
31596;SDS011;18201;50.978;7.034;2022-09-17T10:55:39;5.30;;;1.10;;
31596;SDS011;18201;50.978;7.034;2022-09-17T10:56:45;5.55;;;1.17;;
31596;SDS011;18201;50.978;7.034;2022-09-17T10:58:01;5.53;;;1.27;;
31596;SDS011;18201;50.978;7.034;2022-09-17T11:00:43;5.43;;;1.55;;
31596;SDS011;18201;50.978;7.034;2022-09-17T11:02:00;5.03;;;1.00;;
31596;SDS011;18201;50.978;7.034;2022-09-17T11:03:27;3.65;;;1.40;;
31596;SDS011;18201;50.978;7.034;2022-09-17T11:04:47;2.92;;;0.80;;
31596;SDS011;18201;50.978;7.034;2022-09-17T11:06:02;5.20;;;0.95;;
31596;SDS011;18201;50.978;7.034;2022-09-17T11:08:36;4.97;;;1.27;;
31596;SDS011;18201;50.978;7.034;2022-09-17T11:09:47;3.92;;;1.15;;
31596;SDS011;18201;50.978;7.034;2022-09-17T11:10:57;7.45;;;1.42;;
31596;SDS011;18201;50.978;7.034;2022-09-17T11:12:12;8.25;;;1.05;;
31596;SDS011;18201;50.978;7.034;2022-09-17T11:13:24;5.55;;;1.13;;
31596;SDS011;18201;50.978;7.034;2022-09-17T11:14:43;4.05;;;1.27;;
31596;SDS011;18201;50.978;7.034;2022-09-17T11:15:53;5.32;;;1.50;;
31596;SDS011;18201;50.978;7.034;2022-09-17T11:17:12;5.20;;;1.35;;
31596;SDS011;18201;50.978;7.034;2022-09-17T11:18:36;3.05;;;1.30;;
31596;SDS011;18201;50.978;7.034;2022-09-17T11:19:43;4.03;;;1.15;;
31596;SDS011;18201;50.978;7.034;2022-09-17T11:22:27;5.63;;;1.33;;
31596;SDS011;18201;50.978;7.034;2022-09-17T11:25:23;3.85;;;1.55;;
31596;SDS011;18201;50.978;7.034;2022-09-17T11:26:37;4.97;;;1.55;;
31596;SDS011;18201;50.978;7.034;2022-09-17T11:27:50;10.10;;;2.33;;
31596;SDS011;18201;50.978;7.034;2022-09-17T11:29:04;6.45;;;1.75;;
31596;SDS011;18201;50.978;7.034;2022-09-17T11:30:18;7.22;;;1.20;;
31596;SDS011;18201;50.978;7.034;2022-09-17T11:31:25;5.45;;;1.63;;
31596;SDS011;18201;50.978;7.034;2022-09-17T11:34:20;5.45;;;1.73;;
31596;SDS011;18201;50.978;7.034;2022-09-17T11:35:28;4.68;;;1.20;;
31596;SDS011;18201;50.978;7.034;2022-09-17T11:36:36;5.13;;;1.08;;
31596;SDS011;18201;50.978;7.034;2022-09-17T11:37:47;7.72;;;1.20;;
31596;SDS011;18201;50.978;7.034;2022-09-17T11:38:52;4.93;;;1.10;;
31596;SDS011;18201;50.978;7.034;2022-09-17T11:39:58;6.00;;;1.15;;
31596;SDS011;18201;50.978;7.034;2022-09-17T11:41:05;3.80;;;1.08;;
31596;SDS011;18201;50.978;7.034;2022-09-17T11:42:12;2.65;;;0.88;;
31596;SDS011;18201;50.978;7.034;2022-09-17T11:43:20;9.98;;;1.08;;
31596;SDS011;18201;50.978;7.034;2022-09-17T11:44:26;4.55;;;1.15;;
31596;SDS011;18201;50.978;7.034;2022-09-17T11:45:32;2.70;;;0.90;;
31596;SDS011;18201;50.978;7.034;2022-09-17T11:46:37;4.13;;;1.10;;
31596;SDS011;18201;50.978;7.034;2022-09-17T11:47:46;6.70;;;1.50;;
31596;SDS011;18201;50.978;7.034;2022-09-17T11:48:51;2.15;;;1.17;;
31596;SDS011;18201;50.978;7.034;2022-09-17T11:50:00;4.32;;;1.20;;
31596;SDS011;18201;50.978;7.034;2022-09-17T11:51:12;6.82;;;0.70;;
31596;SDS011;18201;50.978;7.034;2022-09-17T11:52:22;4.97;;;1.33;;
31596;SDS011;18201;50.978;7.034;2022-09-17T11:53:27;4.78;;;1.17;;
31596;SDS011;18201;50.978;7.034;2022-09-17T11:54:34;8.95;;;1.40;;
31596;SDS011;18201;50.978;7.034;2022-09-17T11:55:41;5.85;;;1.98;;
31596;SDS011;18201;50.978;7.034;2022-09-17T11:56:48;2.72;;;0.90;;
31596;SDS011;18201;50.978;7.034;2022-09-17T11:57:53;4.78;;;0.75;;
31596;SDS011;18201;50.978;7.034;2022-09-17T11:59:01;2.85;;;0.70;;
31596;SDS011;18201;50.978;7.034;2022-09-17T12:00:11;4.68;;;0.80;;
31596;SDS011;18201;50.978;7.034;2022-09-17T12:01:18;2.92;;;0.90;;
31596;SDS011;18201;50.978;7.034;2022-09-17T12:02:25;7.18;;;1.27;;
31596;SDS011;18201;50.978;7.034;2022-09-17T12:03:35;4.82;;;1.35;;
31596;SDS011;18201;50.978;7.034;2022-09-17T12:04:41;6.53;;;1.00;;
31596;SDS011;18201;50.978;7.034;2022-09-17T12:05:48;2.70;;;1.08;;
31596;SDS011;18201;50.978;7.034;2022-09-17T12:06:55;4.82;;;0.88;;
31596;SDS011;18201;50.978;7.034;2022-09-17T12:08:03;5.38;;;0.93;;
31596;SDS011;18201;50.978;7.034;2022-09-17T12:09:11;3.33;;;0.90;;
31596;SDS011;18201;50.978;7.034;2022-09-17T12:10:19;1.48;;;0.73;;
31596;SDS011;18201;50.978;7.034;2022-09-17T12:11:33;1.92;;;1.38;;
31596;SDS011;18201;50.978;7.034;2022-09-17T12:12:41;4.10;;;0.70;;
31596;SDS011;18201;50.978;7.034;2022-09-17T12:13:48;3.30;;;0.88;;
31596;SDS011;18201;50.978;7.034;2022-09-17T12:14:53;4.32;;;0.90;;
31596;SDS011;18201;50.978;7.034;2022-09-17T12:16:10;1.90;;;0.88;;
31596;SDS011;18201;50.978;7.034;2022-09-17T12:17:18;5.85;;;1.30;;
31596;SDS011;18201;50.978;7.034;2022-09-17T12:18:27;2.08;;;0.80;;
31596;SDS011;18201;50.978;7.034;2022-09-17T12:19:45;4.68;;;0.82;;
31596;SDS011;18201;50.978;7.034;2022-09-17T12:20:53;5.50;;;1.88;;
31596;SDS011;18201;50.978;7.034;2022-09-17T12:21:58;3.22;;;2.10;;
31596;SDS011;18201;50.978;7.034;2022-09-17T12:23:05;4.72;;;2.20;;
31596;SDS011;18201;50.978;7.034;2022-09-17T12:24:12;4.82;;;2.38;;
31596;SDS011;18201;50.978;7.034;2022-09-17T12:25:20;3.45;;;2.40;;
31596;SDS011;18201;50.978;7.034;2022-09-17T12:26:25;6.43;;;2.60;;
31596;SDS011;18201;50.978;7.034;2022-09-17T12:27:40;5.20;;;2.47;;
31596;SDS011;18201;50.978;7.034;2022-09-17T12:28:49;2.95;;;2.05;;
31596;SDS011;18201;50.978;7.034;2022-09-17T12:30:03;4.15;;;2.22;;
31596;SDS011;18201;50.978;7.034;2022-09-17T12:31:09;5.55;;;2.40;;
31596;SDS011;18201;50.978;7.034;2022-09-17T12:32:23;4.60;;;2.08;;
31596;SDS011;18201;50.978;7.034;2022-09-17T12:33:38;4.35;;;2.53;;
31596;SDS011;18201;50.978;7.034;2022-09-17T12:34:46;5.05;;;2.42;;
31596;SDS011;18201;50.978;7.034;2022-09-17T12:36:00;2.53;;;1.63;;
31596;SDS011;18201;50.978;7.034;2022-09-17T12:37:13;2.85;;;1.80;;
31596;SDS011;18201;50.978;7.034;2022-09-17T12:38:25;2.90;;;1.63;;
31596;SDS011;18201;50.978;7.034;2022-09-17T12:39:52;4.70;;;1.65;;
31596;SDS011;18201;50.978;7.034;2022-09-17T12:41:02;2.22;;;1.10;;
31596;SDS011;18201;50.978;7.034;2022-09-17T12:42:13;3.75;;;1.00;;
31596;SDS011;18201;50.978;7.034;2022-09-17T12:43:29;2.00;;;1.00;;
31596;SDS011;18201;50.978;7.034;2022-09-17T12:44:45;4.13;;;0.82;;
31596;SDS011;18201;50.978;7.034;2022-09-17T12:46:01;2.97;;;1.10;;
31596;SDS011;18201;50.978;7.034;2022-09-17T12:50:34;2.63;;;0.98;;
31596;SDS011;18201;50.978;7.034;2022-09-17T12:51:52;2.75;;;0.55;;
31596;SDS011;18201;50.978;7.034;2022-09-17T12:53:00;5.07;;;1.23;;
31596;SDS011;18201;50.978;7.034;2022-09-17T12:54:09;3.88;;;1.08;;
31596;SDS011;18201;50.978;7.034;2022-09-17T12:55:36;2.10;;;0.82;;
31596;SDS011;18201;50.978;7.034;2022-09-17T12:56:47;2.47;;;1.10;;
31596;SDS011;18201;50.978;7.034;2022-09-17T12:57:59;2.55;;;0.70;;
31596;SDS011;18201;50.978;7.034;2022-09-17T12:59:09;3.42;;;0.95;;
31596;SDS011;18201;50.978;7.034;2022-09-17T13:00:15;4.85;;;0.93;;
31596;SDS011;18201;50.978;7.034;2022-09-17T13:01:17;4.25;;;1.08;;
31596;SDS011;18201;50.978;7.034;2022-09-17T13:02:26;5.50;;;1.02;;
31596;SDS011;18201;50.978;7.034;2022-09-17T13:03:31;2.83;;;0.85;;
31596;SDS011;18201;50.978;7.034;2022-09-17T13:04:47;1.83;;;0.80;;
31596;SDS011;18201;50.978;7.034;2022-09-17T13:06:09;4.03;;;0.98;;
31596;SDS011;18201;50.978;7.034;2022-09-17T13:07:48;4.10;;;0.70;;
31596;SDS011;18201;50.978;7.034;2022-09-17T13:11:04;4.60;;;0.70;;
31596;SDS011;18201;50.978;7.034;2022-09-17T13:12:26;3.17;;;0.60;;
31596;SDS011;18201;50.978;7.034;2022-09-17T13:13:34;3.35;;;0.80;;
31596;SDS011;18201;50.978;7.034;2022-09-17T13:14:47;1.17;;;0.50;;
31596;SDS011;18201;50.978;7.034;2022-09-17T13:16:09;2.45;;;0.80;;
31596;SDS011;18201;50.978;7.034;2022-09-17T13:17:21;2.60;;;0.60;;
31596;SDS011;18201;50.978;7.034;2022-09-17T13:18:27;2.67;;;0.75;;
31596;SDS011;18201;50.978;7.034;2022-09-17T13:19:36;4.15;;;0.85;;
31596;SDS011;18201;50.978;7.034;2022-09-17T13:20:49;2.40;;;0.60;;
31596;SDS011;18201;50.978;7.034;2022-09-17T13:22:02;1.85;;;0.90;;
31596;SDS011;18201;50.978;7.034;2022-09-17T13:23:07;1.85;;;0.80;;
31596;SDS011;18201;50.978;7.034;2022-09-17T13:24:14;2.85;;;1.05;;
31596;SDS011;18201;50.978;7.034;2022-09-17T13:25:18;1.52;;;0.70;;
31596;SDS011;18201;50.978;7.034;2022-09-17T13:26:21;1.95;;;0.68;;
31596;SDS011;18201;50.978;7.034;2022-09-17T13:27:34;1.00;;;0.60;;
31596;SDS011;18201;50.978;7.034;2022-09-17T13:28:37;3.65;;;1.15;;
31596;SDS011;18201;50.978;7.034;2022-09-17T13:29:57;1.90;;;0.88;;
31596;SDS011;18201;50.978;7.034;2022-09-17T13:30:59;1.63;;;0.70;;
31596;SDS011;18201;50.978;7.034;2022-09-17T13:32:03;2.13;;;0.93;;
31596;SDS011;18201;50.978;7.034;2022-09-17T13:33:04;2.90;;;1.13;;
31596;SDS011;18201;50.978;7.034;2022-09-17T13:34:11;2.95;;;0.90;;
31596;SDS011;18201;50.978;7.034;2022-09-17T13:35:47;3.90;;;1.27;;
31596;SDS011;18201;50.978;7.034;2022-09-17T13:36:50;6.75;;;1.05;;
31596;SDS011;18201;50.978;7.034;2022-09-17T13:37:53;1.27;;;0.80;;
31596;SDS011;18201;50.978;7.034;2022-09-17T13:38:57;1.88;;;0.90;;
31596;SDS011;18201;50.978;7.034;2022-09-17T13:39:59;2.60;;;1.02;;
31596;SDS011;18201;50.978;7.034;2022-09-17T13:41:18;3.05;;;1.33;;
31596;SDS011;18201;50.978;7.034;2022-09-17T13:42:23;2.60;;;0.98;;
31596;SDS011;18201;50.978;7.034;2022-09-17T13:43:26;1.75;;;1.15;;
31596;SDS011;18201;50.978;7.034;2022-09-17T13:44:29;2.92;;;1.10;;
31596;SDS011;18201;50.978;7.034;2022-09-17T13:45:30;2.53;;;0.88;;
31596;SDS011;18201;50.978;7.034;2022-09-17T13:46:33;4.15;;;1.15;;
31596;SDS011;18201;50.978;7.034;2022-09-17T13:47:36;2.85;;;1.00;;
31596;SDS011;18201;50.978;7.034;2022-09-17T20:19:33;8.90;;;2.28;;
31596;SDS011;18201;50.978;7.034;2022-09-17T20:20:36;13.57;;;2.55;;
31596;SDS011;18201;50.978;7.034;2022-09-17T20:21:37;13.13;;;3.25;;
31596;SDS011;18201;50.978;7.034;2022-09-17T20:22:39;13.30;;;2.75;;
31596;SDS011;18201;50.978;7.034;2022-09-17T20:23:40;11.88;;;2.92;;
31596;SDS011;18201;50.978;7.034;2022-09-17T20:24:42;14.85;;;2.97;;
31596;SDS011;18201;50.978;7.034;2022-09-17T20:25:49;12.80;;;2.17;;
31596;SDS011;18201;50.978;7.034;2022-09-17T20:26:51;10.95;;;3.00;;
31596;SDS011;18201;50.978;7.034;2022-09-17T20:27:52;11.30;;;2.10;;
31596;SDS011;18201;50.978;7.034;2022-09-17T20:28:54;8.93;;;2.70;;
31596;SDS011;18201;50.978;7.034;2022-09-17T20:29:55;10.55;;;2.65;;
31596;SDS011;18201;50.978;7.034;2022-09-17T20:31:00;7.53;;;2.30;;
31596;SDS011;18201;50.978;7.034;2022-09-17T20:32:02;15.93;;;2.85;;
31596;SDS011;18201;50.978;7.034;2022-09-17T20:33:04;11.35;;;2.10;;
31596;SDS011;18201;50.978;7.034;2022-09-17T20:34:05;11.48;;;2.40;;
31596;SDS011;18201;50.978;7.034;2022-09-17T20:35:08;10.93;;;2.15;;
31596;SDS011;18201;50.978;7.034;2022-09-17T20:36:10;9.98;;;2.30;;
31596;SDS011;18201;50.978;7.034;2022-09-17T20:37:13;7.22;;;2.20;;
31596;SDS011;18201;50.978;7.034;2022-09-17T20:38:14;10.70;;;2.28;;
31596;SDS011;18201;50.978;7.034;2022-09-17T20:39:15;11.45;;;2.15;;
31596;SDS011;18201;50.978;7.034;2022-09-17T20:40:17;9.95;;;2.28;;
31596;SDS011;18201;50.978;7.034;2022-09-17T20:41:18;8.30;;;2.72;;
31596;SDS011;18201;50.978;7.034;2022-09-17T20:42:20;17.10;;;3.17;;
31596;SDS011;18201;50.978;7.034;2022-09-17T20:43:21;16.95;;;2.90;;
31596;SDS011;18201;50.978;7.034;2022-09-17T20:44:23;7.30;;;2.20;;
31596;SDS011;18201;50.978;7.034;2022-09-17T20:45:24;12.60;;;2.30;;
31596;SDS011;18201;50.978;7.034;2022-09-17T20:46:26;14.30;;;3.17;;
31596;SDS011;18201;50.978;7.034;2022-09-17T20:47:27;9.35;;;2.97;;
31596;SDS011;18201;50.978;7.034;2022-09-17T20:48:29;7.03;;;2.17;;
31596;SDS011;18201;50.978;7.034;2022-09-17T20:49:30;9.73;;;2.58;;
31596;SDS011;18201;50.978;7.034;2022-09-17T20:50:33;8.80;;;2.85;;
31596;SDS011;18201;50.978;7.034;2022-09-17T20:51:34;7.80;;;2.30;;
31596;SDS011;18201;50.978;7.034;2022-09-17T20:52:36;7.55;;;1.73;;
31596;SDS011;18201;50.978;7.034;2022-09-17T20:53:37;11.45;;;2.75;;
31596;SDS011;18201;50.978;7.034;2022-09-17T20:54:39;18.85;;;2.45;;
31596;SDS011;18201;50.978;7.034;2022-09-17T20:55:40;7.93;;;2.00;;
31596;SDS011;18201;50.978;7.034;2022-09-17T20:56:42;9.45;;;2.03;;
31596;SDS011;18201;50.978;7.034;2022-09-17T20:57:43;9.38;;;2.63;;
31596;SDS011;18201;50.978;7.034;2022-09-17T20:58:46;9.35;;;1.98;;
31596;SDS011;18201;50.978;7.034;2022-09-17T20:59:52;9.50;;;1.88;;
31596;SDS011;18201;50.978;7.034;2022-09-17T21:01:03;10.00;;;3.20;;
31596;SDS011;18201;50.978;7.034;2022-09-17T21:02:05;9.23;;;2.28;;
31596;SDS011;18201;50.978;7.034;2022-09-17T21:03:09;6.20;;;1.80;;
31596;SDS011;18201;50.978;7.034;2022-09-17T21:04:13;13.15;;;2.30;;
31596;SDS011;18201;50.978;7.034;2022-09-17T21:05:17;10.60;;;2.35;;
31596;SDS011;18201;50.978;7.034;2022-09-17T21:06:21;12.20;;;2.42;;
31596;SDS011;18201;50.978;7.034;2022-09-17T21:07:25;12.07;;;2.70;;
31596;SDS011;18201;50.978;7.034;2022-09-17T21:08:26;7.35;;;2.90;;
31596;SDS011;18201;50.978;7.034;2022-09-17T21:09:28;12.60;;;2.60;;
31596;SDS011;18201;50.978;7.034;2022-09-17T21:10:29;10.60;;;2.28;;
31596;SDS011;18201;50.978;7.034;2022-09-17T21:11:31;12.00;;;3.53;;
31596;SDS011;18201;50.978;7.034;2022-09-17T21:12:33;11.48;;;2.67;;
31596;SDS011;18201;50.978;7.034;2022-09-17T21:13:35;16.38;;;3.50;;
31596;SDS011;18201;50.978;7.034;2022-09-17T21:14:36;18.75;;;3.08;;
31596;SDS011;18201;50.978;7.034;2022-09-17T21:15:38;11.82;;;2.53;;
31596;SDS011;18201;50.978;7.034;2022-09-17T21:16:39;14.18;;;3.28;;
31596;SDS011;18201;50.978;7.034;2022-09-17T21:17:41;15.52;;;2.72;;
31596;SDS011;18201;50.978;7.034;2022-09-17T21:18:44;10.88;;;2.90;;
31596;SDS011;18201;50.978;7.034;2022-09-17T21:19:46;7.85;;;2.17;;
31596;SDS011;18201;50.978;7.034;2022-09-17T21:20:47;11.77;;;3.05;;
31596;SDS011;18201;50.978;7.034;2022-09-17T21:21:50;17.00;;;3.00;;
31596;SDS011;18201;50.978;7.034;2022-09-17T21:22:53;9.70;;;2.30;;
31596;SDS011;18201;50.978;7.034;2022-09-17T21:23:57;7.13;;;2.35;;
31596;SDS011;18201;50.978;7.034;2022-09-17T21:25:00;10.75;;;2.53;;
31596;SDS011;18201;50.978;7.034;2022-09-17T21:26:02;13.23;;;2.17;;
31596;SDS011;18201;50.978;7.034;2022-09-17T21:27:04;12.32;;;2.70;;
31596;SDS011;18201;50.978;7.034;2022-09-17T21:28:07;10.73;;;2.20;;
31596;SDS011;18201;50.978;7.034;2022-09-17T21:29:08;14.30;;;2.38;;
31596;SDS011;18201;50.978;7.034;2022-09-17T21:30:10;13.32;;;2.97;;
31596;SDS011;18201;50.978;7.034;2022-09-17T21:31:12;10.65;;;2.53;;
31596;SDS011;18201;50.978;7.034;2022-09-17T21:32:15;14.32;;;3.47;;
31596;SDS011;18201;50.978;7.034;2022-09-17T21:33:16;15.60;;;2.88;;
31596;SDS011;18201;50.978;7.034;2022-09-17T21:34:21;12.63;;;2.50;;
31596;SDS011;18201;50.978;7.034;2022-09-17T21:35:23;7.95;;;2.15;;
31596;SDS011;18201;50.978;7.034;2022-09-17T21:36:29;14.25;;;2.75;;
31596;SDS011;18201;50.978;7.034;2022-09-17T21:37:33;10.00;;;2.42;;
31596;SDS011;18201;50.978;7.034;2022-09-17T21:38:34;9.02;;;2.85;;
31596;SDS011;18201;50.978;7.034;2022-09-17T21:39:36;14.20;;;2.83;;
31596;SDS011;18201;50.978;7.034;2022-09-17T21:40:38;11.07;;;2.78;;
31596;SDS011;18201;50.978;7.034;2022-09-17T21:41:39;10.48;;;2.40;;
31596;SDS011;18201;50.978;7.034;2022-09-17T21:42:41;12.25;;;2.75;;